sensor_id;sensor_type;location;lat;lon;timestamp;pressure;altitude;pressure_sealevel;temperature;humidity
61554;BME280;47425;51.976;5.326;2023-04-05T00:02:26;102390.44;;;6.28;52.26
61554;BME280;47425;51.976;5.326;2023-04-05T00:04:53;102383.47;;;6.26;52.53
61554;BME280;47425;51.976;5.326;2023-04-05T00:07:21;102380.81;;;6.24;52.74
61554;BME280;47425;51.976;5.326;2023-04-05T00:09:49;102385.81;;;6.15;52.88
61554;BME280;47425;51.976;5.326;2023-04-05T00:12:16;102375.38;;;6.13;52.94
61554;BME280;47425;51.976;5.326;2023-04-05T00:14:42;102378.09;;;6.18;52.76
61554;BME280;47425;51.976;5.326;2023-04-05T00:17:11;102378.13;;;6.19;52.37
61554;BME280;47425;51.976;5.326;2023-04-05T00:19:38;102371.06;;;6.14;52.55
61554;BME280;47425;51.976;5.326;2023-04-05T00:22:05;102366.94;;;6.24;52.41
61554;BME280;47425;51.976;5.326;2023-04-05T00:24:35;102372.34;;;6.33;52.27
61554;BME280;47425;51.976;5.326;2023-04-05T00:27:04;102364.56;;;6.33;51.92
61554;BME280;47425;51.976;5.326;2023-04-05T00:29:31;102361.75;;;6.24;51.94
61554;BME280;47425;51.976;5.326;2023-04-05T00:31:58;102368.53;;;6.17;52.07
61554;BME280;47425;51.976;5.326;2023-04-05T00:34:26;102369.19;;;6.08;52.40
61554;BME280;47425;51.976;5.326;2023-04-05T00:36:53;102358.50;;;5.97;52.25
61554;BME280;47425;51.976;5.326;2023-04-05T00:39:20;102362.06;;;5.99;52.15
61554;BME280;47425;51.976;5.326;2023-04-05T00:41:46;102359.47;;;5.99;52.33
61554;BME280;47425;51.976;5.326;2023-04-05T00:44:14;102357.66;;;5.97;52.10
61554;BME280;47425;51.976;5.326;2023-04-05T00:46:40;102353.16;;;5.90;52.09
61554;BME280;47425;51.976;5.326;2023-04-05T00:49:07;102351.41;;;5.88;51.91
61554;BME280;47425;51.976;5.326;2023-04-05T00:51:35;102352.19;;;5.86;51.95
61554;BME280;47425;51.976;5.326;2023-04-05T00:54:03;102352.25;;;5.89;51.97
61554;BME280;47425;51.976;5.326;2023-04-05T00:56:30;102345.34;;;5.90;51.99
61554;BME280;47425;51.976;5.326;2023-04-05T00:58:57;102353.88;;;5.84;51.80
61554;BME280;47425;51.976;5.326;2023-04-05T01:01:24;102353.66;;;5.75;51.83
61554;BME280;47425;51.976;5.326;2023-04-05T01:03:54;102348.44;;;5.75;51.72
61554;BME280;47425;51.976;5.326;2023-04-05T01:06:49;102349.41;;;5.78;51.83
61554;BME280;47425;51.976;5.326;2023-04-05T01:09:21;102340.75;;;5.78;51.67
61554;BME280;47425;51.976;5.326;2023-04-05T01:11:51;102339.13;;;5.83;51.52
61554;BME280;47425;51.976;5.326;2023-04-05T01:14:18;102335.78;;;5.88;51.32
61554;BME280;47425;51.976;5.326;2023-04-05T01:16:44;102333.28;;;5.93;51.03
61554;BME280;47425;51.976;5.326;2023-04-05T01:19:34;102332.47;;;5.96;50.84
61554;BME280;47425;51.976;5.326;2023-04-05T01:22:18;102344.47;;;5.89;51.02
61554;BME280;47425;51.976;5.326;2023-04-05T01:25:00;102337.66;;;5.94;51.11
61554;BME280;47425;51.976;5.326;2023-04-05T01:27:35;102336.34;;;6.12;51.17
61554;BME280;47425;51.976;5.326;2023-04-05T01:30:12;102333.06;;;6.20;50.52
61554;BME280;47425;51.976;5.326;2023-04-05T01:33:00;102325.09;;;6.13;50.14
61554;BME280;47425;51.976;5.326;2023-04-05T01:35:51;102317.50;;;6.22;50.20
61554;BME280;47425;51.976;5.326;2023-04-05T01:38:20;102318.47;;;6.27;50.05
61554;BME280;47425;51.976;5.326;2023-04-05T01:40:49;102316.75;;;6.29;50.15
61554;BME280;47425;51.976;5.326;2023-04-05T01:43:17;102315.13;;;6.33;49.97
61554;BME280;47425;51.976;5.326;2023-04-05T01:45:45;102312.31;;;6.24;49.40
61554;BME280;47425;51.976;5.326;2023-04-05T01:48:12;102321.69;;;6.15;49.51
61554;BME280;47425;51.976;5.326;2023-04-05T01:50:39;102314.06;;;6.23;50.45
61554;BME280;47425;51.976;5.326;2023-04-05T01:53:06;102325.56;;;6.34;50.40
61554;BME280;47425;51.976;5.326;2023-04-05T01:55:33;102314.38;;;6.40;49.71
61554;BME280;47425;51.976;5.326;2023-04-05T01:58:00;102314.56;;;6.48;49.40
61554;BME280;47425;51.976;5.326;2023-04-05T02:00:48;102312.75;;;6.45;49.04
61554;BME280;47425;51.976;5.326;2023-04-05T02:03:15;102305.75;;;6.43;49.65
61554;BME280;47425;51.976;5.326;2023-04-05T02:05:41;102303.31;;;6.50;49.20
61554;BME280;47425;51.976;5.326;2023-04-05T02:08:08;102301.56;;;6.49;49.18
61554;BME280;47425;51.976;5.326;2023-04-05T02:10:36;102298.81;;;6.43;49.42
61554;BME280;47425;51.976;5.326;2023-04-05T02:13:02;102307.38;;;6.37;49.51
61554;BME280;47425;51.976;5.326;2023-04-05T02:15:29;102297.81;;;6.36;49.68
61554;BME280;47425;51.976;5.326;2023-04-05T02:17:59;102290.88;;;6.35;49.46
61554;BME280;47425;51.976;5.326;2023-04-05T02:20:28;102291.81;;;6.39;49.71
61554;BME280;47425;51.976;5.326;2023-04-05T02:22:55;102291.00;;;6.42;49.61
61554;BME280;47425;51.976;5.326;2023-04-05T02:25:22;102300.56;;;6.43;49.69
61554;BME280;47425;51.976;5.326;2023-04-05T02:27:50;102291.81;;;6.39;49.42
61554;BME280;47425;51.976;5.326;2023-04-05T02:30:16;102281.38;;;6.37;49.61
61554;BME280;47425;51.976;5.326;2023-04-05T02:32:43;102289.09;;;6.33;49.54
61554;BME280;47425;51.976;5.326;2023-04-05T02:35:11;102283.72;;;6.25;49.64
61554;BME280;47425;51.976;5.326;2023-04-05T02:37:38;102285.34;;;6.20;49.99
61554;BME280;47425;51.976;5.326;2023-04-05T02:40:07;102288.88;;;6.22;49.85
61554;BME280;47425;51.976;5.326;2023-04-05T02:42:36;102286.34;;;6.27;49.80
61554;BME280;47425;51.976;5.326;2023-04-05T02:45:03;102282.09;;;6.30;49.73
61554;BME280;47425;51.976;5.326;2023-04-05T02:47:31;102278.69;;;6.33;49.67
61554;BME280;47425;51.976;5.326;2023-04-05T02:49:58;102283.88;;;6.31;49.70
61554;BME280;47425;51.976;5.326;2023-04-05T02:52:31;102282.06;;;6.27;49.47
61554;BME280;47425;51.976;5.326;2023-04-05T02:54:59;102275.84;;;6.20;49.79
61554;BME280;47425;51.976;5.326;2023-04-05T02:57:29;102271.56;;;6.24;50.37
61554;BME280;47425;51.976;5.326;2023-04-05T03:00:16;102269.97;;;6.32;49.88
61554;BME280;47425;51.976;5.326;2023-04-05T03:02:44;102263.19;;;6.39;49.86
61554;BME280;47425;51.976;5.326;2023-04-05T03:05:10;102257.28;;;6.46;49.64
61554;BME280;47425;51.976;5.326;2023-04-05T03:07:40;102254.75;;;6.51;49.61
61554;BME280;47425;51.976;5.326;2023-04-05T03:10:12;102253.94;;;6.53;49.42
61554;BME280;47425;51.976;5.326;2023-04-05T03:12:59;102252.91;;;6.45;49.10
61554;BME280;47425;51.976;5.326;2023-04-05T03:15:45;102249.22;;;6.34;49.23
61554;BME280;47425;51.976;5.326;2023-04-05T03:18:15;102249.06;;;6.26;49.21
61554;BME280;47425;51.976;5.326;2023-04-05T03:20:43;102244.75;;;6.28;49.52
61554;BME280;47425;51.976;5.326;2023-04-05T03:23:17;102245.78;;;6.36;49.71
61554;BME280;47425;51.976;5.326;2023-04-05T03:25:49;102248.63;;;6.47;49.39
61554;BME280;47425;51.976;5.326;2023-04-05T03:28:22;102247.44;;;6.77;50.49
61554;BME280;47425;51.976;5.326;2023-04-05T03:30:52;102247.88;;;7.03;48.96
61554;BME280;47425;51.976;5.326;2023-04-05T03:33:20;102247.66;;;6.89;48.65
61554;BME280;47425;51.976;5.326;2023-04-05T03:35:49;102242.59;;;6.99;49.53
61554;BME280;47425;51.976;5.326;2023-04-05T03:38:18;102251.38;;;7.05;48.62
61554;BME280;47425;51.976;5.326;2023-04-05T03:40:53;102250.25;;;6.89;47.70
61554;BME280;47425;51.976;5.326;2023-04-05T03:43:21;102243.13;;;6.81;47.82
61554;BME280;47425;51.976;5.326;2023-04-05T03:45:47;102235.22;;;6.75;48.14
61554;BME280;47425;51.976;5.326;2023-04-05T03:48:14;102244.09;;;6.86;47.85
61554;BME280;47425;51.976;5.326;2023-04-05T03:50:46;102237.88;;;6.78;47.93
61554;BME280;47425;51.976;5.326;2023-04-05T03:53:13;102237.00;;;6.77;47.75
61554;BME280;47425;51.976;5.326;2023-04-05T03:55:47;102243.13;;;6.81;48.16
61554;BME280;47425;51.976;5.326;2023-04-05T03:58:17;102242.25;;;6.79;47.76
61554;BME280;47425;51.976;5.326;2023-04-05T04:00:44;102248.06;;;6.65;47.31
61554;BME280;47425;51.976;5.326;2023-04-05T04:03:17;102238.16;;;6.46;47.48
61554;BME280;47425;51.976;5.326;2023-04-05T04:05:48;102235.25;;;6.29;47.68
61554;BME280;47425;51.976;5.326;2023-04-05T04:08:16;102238.66;;;6.26;48.15
61554;BME280;47425;51.976;5.326;2023-04-05T04:11:00;102238.66;;;6.26;48.42
61554;BME280;47425;51.976;5.326;2023-04-05T04:13:30;102233.00;;;6.47;48.98
61554;BME280;47425;51.976;5.326;2023-04-05T04:16:01;102236.53;;;6.52;48.11
61554;BME280;47425;51.976;5.326;2023-04-05T04:18:49;102239.16;;;6.52;48.38
61554;BME280;47425;51.976;5.326;2023-04-05T04:21:27;102231.50;;;6.60;48.83
61554;BME280;47425;51.976;5.326;2023-04-05T04:24:00;102238.41;;;6.58;47.98
61554;BME280;47425;51.976;5.326;2023-04-05T04:27:04;102232.00;;;6.41;47.73
61554;BME280;47425;51.976;5.326;2023-04-05T04:30:04;102229.22;;;6.31;48.55
61554;BME280;47425;51.976;5.326;2023-04-05T04:33:01;102235.34;;;6.35;47.59
61554;BME280;47425;51.976;5.326;2023-04-05T04:35:43;102230.03;;;6.29;48.30
61554;BME280;47425;51.976;5.326;2023-04-05T04:38:32;102234.22;;;6.20;47.52
61554;BME280;47425;51.976;5.326;2023-04-05T04:44:12;102234.41;;;5.90;47.60
61554;BME280;47425;51.976;5.326;2023-04-05T04:46:59;102229.81;;;5.78;47.71
61554;BME280;47425;51.976;5.326;2023-04-05T04:49:44;102236.38;;;5.61;47.58
61554;BME280;47425;51.976;5.326;2023-04-05T04:52:12;102239.78;;;5.58;47.92
61554;BME280;47425;51.976;5.326;2023-04-05T04:54:40;102236.94;;;5.47;47.74
61554;BME280;47425;51.976;5.326;2023-04-05T04:57:08;102236.72;;;5.38;48.06
61554;BME280;47425;51.976;5.326;2023-04-05T04:59:36;102234.19;;;5.41;48.14
61554;BME280;47425;51.976;5.326;2023-04-05T05:02:04;102232.28;;;5.34;48.43
61554;BME280;47425;51.976;5.326;2023-04-05T05:04:36;102233.28;;;5.39;48.53
61554;BME280;47425;51.976;5.326;2023-04-05T05:07:05;102234.25;;;5.43;48.86
61554;BME280;47425;51.976;5.326;2023-04-05T05:09:32;102236.72;;;5.38;48.82
61554;BME280;47425;51.976;5.326;2023-04-05T05:11:58;102232.34;;;5.37;49.35
61554;BME280;47425;51.976;5.326;2023-04-05T05:14:47;102226.97;;;5.28;48.61
61554;BME280;47425;51.976;5.326;2023-04-05T05:17:13;102227.56;;;5.16;48.60
61554;BME280;47425;51.976;5.326;2023-04-05T05:19:40;102226.69;;;5.17;49.28
61554;BME280;47425;51.976;5.326;2023-04-05T05:22:06;102230.41;;;5.27;49.53
61554;BME280;47425;51.976;5.326;2023-04-05T05:24:34;102226.31;;;5.38;49.69
61554;BME280;47425;51.976;5.326;2023-04-05T05:27:01;102229.94;;;5.45;49.21
61554;BME280;47425;51.976;5.326;2023-04-05T05:29:27;102221.31;;;5.46;49.17
61554;BME280;47425;51.976;5.326;2023-04-05T05:31:56;102228.31;;;5.48;48.69
61554;BME280;47425;51.976;5.326;2023-04-05T05:34:23;102227.34;;;5.45;48.93
61554;BME280;47425;51.976;5.326;2023-04-05T05:36:53;102223.91;;;5.46;48.93
61554;BME280;47425;51.976;5.326;2023-04-05T05:39:20;102226.22;;;5.33;48.56
61554;BME280;47425;51.976;5.326;2023-04-05T05:41:48;102219.09;;;5.25;49.01
61554;BME280;47425;51.976;5.326;2023-04-05T05:44:15;102223.59;;;5.32;49.44
61554;BME280;47425;51.976;5.326;2023-04-05T05:46:41;102222.91;;;5.41;49.27
61554;BME280;47425;51.976;5.326;2023-04-05T05:49:10;102231.72;;;5.46;49.54
61554;BME280;47425;51.976;5.326;2023-04-05T05:51:37;102239.50;;;5.46;48.88
61554;BME280;47425;51.976;5.326;2023-04-05T05:54:03;102230.75;;;5.42;48.92
61554;BME280;47425;51.976;5.326;2023-04-05T05:56:30;102235.06;;;5.42;48.93
61554;BME280;47425;51.976;5.326;2023-04-05T05:58:57;102231.53;;;5.38;48.94
61554;BME280;47425;51.976;5.326;2023-04-05T06:01:25;102231.50;;;5.36;48.81
61554;BME280;47425;51.976;5.326;2023-04-05T06:03:53;102232.44;;;5.40;49.60
61554;BME280;47425;51.976;5.326;2023-04-05T06:06:21;102232.72;;;5.52;50.09
61554;BME280;47425;51.976;5.326;2023-04-05T06:08:49;102239.94;;;5.64;49.67
61554;BME280;47425;51.976;5.326;2023-04-05T06:11:16;102231.47;;;5.75;49.73
61554;BME280;47425;51.976;5.326;2023-04-05T06:13:42;102235.94;;;5.80;49.32
61554;BME280;47425;51.976;5.326;2023-04-05T06:16:10;102231.78;;;5.88;49.50
61554;BME280;47425;51.976;5.326;2023-04-05T06:18:36;102237.09;;;5.95;49.71
61554;BME280;47425;51.976;5.326;2023-04-05T06:21:03;102228.66;;;6.03;49.65
61554;BME280;47425;51.976;5.326;2023-04-05T06:23:31;102238.44;;;6.15;49.92
61554;BME280;47425;51.976;5.326;2023-04-05T06:25:59;102240.34;;;6.24;49.63
61554;BME280;47425;51.976;5.326;2023-04-05T06:28:25;102235.22;;;6.27;49.28
61554;BME280;47425;51.976;5.326;2023-04-05T06:30:52;102238.81;;;6.34;49.34
61554;BME280;47425;51.976;5.326;2023-04-05T06:33:19;102238.97;;;6.43;49.22
61554;BME280;47425;51.976;5.326;2023-04-05T06:35:45;102234.75;;;6.50;49.10
61554;BME280;47425;51.976;5.326;2023-04-05T06:38:12;102234.22;;;6.66;49.30
61554;BME280;47425;51.976;5.326;2023-04-05T06:40:39;102244.06;;;6.84;49.51
61554;BME280;47425;51.976;5.326;2023-04-05T06:43:07;102243.94;;;7.29;50.30
61554;BME280;47425;51.976;5.326;2023-04-05T06:45:34;102240.25;;;7.71;49.44
61554;BME280;47425;51.976;5.326;2023-04-05T06:48:01;102238.91;;;8.02;48.72
61554;BME280;47425;51.976;5.326;2023-04-05T06:50:28;102236.53;;;8.21;47.52
61554;BME280;47425;51.976;5.326;2023-04-05T06:52:55;102236.78;;;8.44;48.32
61554;BME280;47425;51.976;5.326;2023-04-05T06:55:21;102233.34;;;8.47;47.43
61554;BME280;47425;51.976;5.326;2023-04-05T06:57:49;102237.59;;;8.38;46.57
61554;BME280;47425;51.976;5.326;2023-04-05T07:00:17;102240.09;;;8.31;46.26
61554;BME280;47425;51.976;5.326;2023-04-05T07:02:43;102246.97;;;8.22;47.39
61554;BME280;47425;51.976;5.326;2023-04-05T07:05:09;102241.88;;;8.33;47.82
61554;BME280;47425;51.976;5.326;2023-04-05T07:07:37;102240.66;;;8.77;48.75
61554;BME280;47425;51.976;5.326;2023-04-05T07:10:05;102234.84;;;9.11;46.75
61554;BME280;47425;51.976;5.326;2023-04-05T07:12:32;102244.69;;;9.46;47.22
61554;BME280;47425;51.976;5.326;2023-04-05T07:14:59;102238.72;;;9.71;46.93
61554;BME280;47425;51.976;5.326;2023-04-05T07:17:27;102235.41;;;10.03;46.59
61554;BME280;47425;51.976;5.326;2023-04-05T07:19:53;102234.56;;;10.11;45.29
61554;BME280;47425;51.976;5.326;2023-04-05T07:22:20;102231.97;;;10.21;45.78
61554;BME280;47425;51.976;5.326;2023-04-05T07:24:46;102237.31;;;10.41;45.96
61554;BME280;47425;51.976;5.326;2023-04-05T07:27:14;102235.56;;;10.37;44.65
61554;BME280;47425;51.976;5.326;2023-04-05T07:29:40;102224.13;;;10.23;44.88
61554;BME280;47425;51.976;5.326;2023-04-05T07:32:09;102224.09;;;10.11;43.86
61554;BME280;47425;51.976;5.326;2023-04-05T07:34:35;102229.91;;;9.52;43.83
61554;BME280;47425;51.976;5.326;2023-04-05T07:37:04;102230.47;;;9.11;44.36
61554;BME280;47425;51.976;5.326;2023-04-05T07:39:31;102238.22;;;8.97;45.68
61554;BME280;47425;51.976;5.326;2023-04-05T07:41:57;102236.00;;;9.53;46.68
61554;BME280;47425;51.976;5.326;2023-04-05T07:44:25;102224.00;;;9.84;45.31
61554;BME280;47425;51.976;5.326;2023-04-05T07:46:51;102224.00;;;9.86;44.15
61554;BME280;47425;51.976;5.326;2023-04-05T07:49:24;102232.75;;;9.94;45.28
61554;BME280;47425;51.976;5.326;2023-04-05T07:51:52;102222.28;;;9.93;43.89
61554;BME280;47425;51.976;5.326;2023-04-05T07:54:20;102238.56;;;9.45;43.82
61554;BME280;47425;51.976;5.326;2023-04-05T07:56:49;102232.53;;;9.52;45.39
61554;BME280;47425;51.976;5.326;2023-04-05T07:59:18;102220.47;;;9.85;45.02
61554;BME280;47425;51.976;5.326;2023-04-05T08:01:44;102226.66;;;10.03;46.04
61554;BME280;47425;51.976;5.326;2023-04-05T08:04:11;102223.34;;;10.43;45.38
61554;BME280;47425;51.976;5.326;2023-04-05T08:06:38;102229.53;;;10.89;45.19
61554;BME280;47425;51.976;5.326;2023-04-05T08:09:05;102229.53;;;11.37;45.03
61554;BME280;47425;51.976;5.326;2023-04-05T08:11:34;102225.97;;;11.63;43.33
61554;BME280;47425;51.976;5.326;2023-04-05T08:14:02;102223.38;;;11.52;42.66
61554;BME280;47425;51.976;5.326;2023-04-05T08:16:28;102228.53;;;11.77;44.25
61554;BME280;47425;51.976;5.326;2023-04-05T08:18:56;102230.09;;;12.32;43.99
61554;BME280;47425;51.976;5.326;2023-04-05T08:21:22;102228.97;;;12.72;41.86
61554;BME280;47425;51.976;5.326;2023-04-05T08:23:50;102235.09;;;12.77;42.02
61554;BME280;47425;51.976;5.326;2023-04-05T08:26:16;102230.72;;;12.71;40.35
61554;BME280;47425;51.976;5.326;2023-04-05T08:28:44;102234.25;;;12.70;41.82
61554;BME280;47425;51.976;5.326;2023-04-05T08:31:10;102236.59;;;13.06;42.41
61554;BME280;47425;51.976;5.326;2023-04-05T08:33:38;102230.09;;;13.49;41.95
61554;BME280;47425;51.976;5.326;2023-04-05T08:36:05;102229.66;;;13.89;40.98
61554;BME280;47425;51.976;5.326;2023-04-05T08:38:53;102227.63;;;14.09;38.69
61554;BME280;47425;51.976;5.326;2023-04-05T08:41:20;102226.34;;;13.71;38.67
61554;BME280;47425;51.976;5.326;2023-04-05T08:43:53;102225.81;;;13.38;39.50
61554;BME280;47425;51.976;5.326;2023-04-05T08:46:40;102222.31;;;13.38;40.61
61554;BME280;47425;51.976;5.326;2023-04-05T08:49:09;102220.41;;;13.51;40.46
61554;BME280;47425;51.976;5.326;2023-04-05T08:51:36;102215.22;;;13.46;38.28
61554;BME280;47425;51.976;5.326;2023-04-05T08:54:05;102220.97;;;12.87;38.46
61554;BME280;47425;51.976;5.326;2023-04-05T08:56:33;102220.84;;;13.04;40.06
61554;BME280;47425;51.976;5.326;2023-04-05T08:59:00;102226.31;;;12.75;39.41
61554;BME280;47425;51.976;5.326;2023-04-05T09:01:28;102220.94;;;12.92;40.11
61554;BME280;47425;51.976;5.326;2023-04-05T09:03:56;102223.25;;;13.27;41.29
61554;BME280;47425;51.976;5.326;2023-04-05T09:06:25;102222.94;;;13.60;40.12
61554;BME280;47425;51.976;5.326;2023-04-05T09:08:53;102218.88;;;13.25;37.32
61554;BME280;47425;51.976;5.326;2023-04-05T09:11:22;102223.66;;;12.81;36.99
61554;BME280;47425;51.976;5.326;2023-04-05T09:13:50;102221.84;;;12.85;38.03
61554;BME280;47425;51.976;5.326;2023-04-05T09:16:16;102210.44;;;12.90;38.83
61554;BME280;47425;51.976;5.326;2023-04-05T09:18:43;102217.34;;;13.02;37.29
61554;BME280;47425;51.976;5.326;2023-04-05T09:21:09;102220.97;;;12.86;37.47
61554;BME280;47425;51.976;5.326;2023-04-05T09:23:36;102212.09;;;13.01;39.35
61554;BME280;47425;51.976;5.326;2023-04-05T09:26:16;102215.25;;;13.43;38.68
61554;BME280;47425;51.976;5.326;2023-04-05T09:28:44;102211.41;;;13.72;39.64
61554;BME280;47425;51.976;5.326;2023-04-05T09:33:56;102218.84;;;14.10;38.51
61554;BME280;47425;51.976;5.326;2023-04-05T09:36:22;102211.47;;;14.37;39.42
61554;BME280;47425;51.976;5.326;2023-04-05T09:38:48;102214.34;;;14.19;34.95
61554;BME280;47425;51.976;5.326;2023-04-05T09:41:16;102209.91;;;13.52;34.19
61554;BME280;47425;51.976;5.326;2023-04-05T09:43:44;102202.44;;;13.00;34.66
61554;BME280;47425;51.976;5.326;2023-04-05T09:46:29;102210.19;;;13.21;35.97
61554;BME280;47425;51.976;5.326;2023-04-05T09:48:57;102203.91;;;13.36;36.96
61554;BME280;47425;51.976;5.326;2023-04-05T09:51:24;102205.75;;;13.23;34.07
61554;BME280;47425;51.976;5.326;2023-04-05T09:56:38;102199.78;;;13.91;38.83
61554;BME280;47425;51.976;5.326;2023-04-05T09:59:28;102197.41;;;14.35;37.56
61554;BME280;47425;51.976;5.326;2023-04-05T10:01:56;102197.25;;;14.46;35.79
61554;BME280;47425;51.976;5.326;2023-04-05T10:04:23;102195.06;;;14.15;37.17
61554;BME280;47425;51.976;5.326;2023-04-05T10:06:49;102191.53;;;14.16;34.58
61554;BME280;47425;51.976;5.326;2023-04-05T10:09:18;102193.47;;;14.05;35.20
61554;BME280;47425;51.976;5.326;2023-04-05T10:11:44;102186.34;;;14.12;35.77
61554;BME280;47425;51.976;5.326;2023-04-05T10:14:11;102189.81;;;14.17;34.45
61554;BME280;47425;51.976;5.326;2023-04-05T10:16:44;102190.06;;;13.97;35.34
61554;BME280;47425;51.976;5.326;2023-04-05T10:19:14;102180.69;;;13.71;32.79
61554;BME280;47425;51.976;5.326;2023-04-05T10:21:41;102177.69;;;14.02;36.99
61554;BME280;47425;51.976;5.326;2023-04-05T10:24:14;102177.06;;;14.47;37.92
61554;BME280;47425;51.976;5.326;2023-04-05T10:26:44;102172.81;;;14.94;37.48
61554;BME280;47425;51.976;5.326;2023-04-05T10:29:16;102165.97;;;15.32;37.14
61554;BME280;47425;51.976;5.326;2023-04-05T10:31:50;102171.59;;;15.60;36.86
61554;BME280;47425;51.976;5.326;2023-04-05T10:34:23;102171.09;;;15.85;36.36
61554;BME280;47425;51.976;5.326;2023-04-05T10:36:56;102173.31;;;16.05;36.12
61554;BME280;47425;51.976;5.326;2023-04-05T10:39:24;102162.53;;;16.15;34.30
61554;BME280;47425;51.976;5.326;2023-04-05T10:41:53;102168.53;;;16.21;35.38
61554;BME280;47425;51.976;5.326;2023-04-05T10:44:24;102166.63;;;16.28;35.66
61554;BME280;47425;51.976;5.326;2023-04-05T10:46:52;102164.56;;;16.41;35.36
61554;BME280;47425;51.976;5.326;2023-04-05T10:49:19;102166.47;;;16.36;35.59
61554;BME280;47425;51.976;5.326;2023-04-05T10:51:48;102162.78;;;16.41;35.60
61554;BME280;47425;51.976;5.326;2023-04-05T10:54:15;102154.66;;;16.51;34.66
61554;BME280;47425;51.976;5.326;2023-04-05T10:56:42;102153.50;;;16.25;32.29
61554;BME280;47425;51.976;5.326;2023-04-05T10:59:09;102156.16;;;16.23;35.17
61554;BME280;47425;51.976;5.326;2023-04-05T11:01:38;102157.59;;;16.37;35.37
61554;BME280;47425;51.976;5.326;2023-04-05T11:04:10;102147.66;;;16.48;35.44
61554;BME280;47425;51.976;5.326;2023-04-05T11:06:37;102144.75;;;16.59;35.40
61554;BME280;47425;51.976;5.326;2023-04-05T11:09:08;102139.19;;;16.70;35.27
61554;BME280;47425;51.976;5.326;2023-04-05T11:11:40;102158.28;;;16.83;35.31
61554;BME280;47425;51.976;5.326;2023-04-05T11:14:18;102149.34;;;16.85;34.89
61554;BME280;47425;51.976;5.326;2023-04-05T11:16:46;102146.63;;;16.90;35.04
61554;BME280;47425;51.976;5.326;2023-04-05T11:19:17;102139.22;;;17.04;34.75
61554;BME280;47425;51.976;5.326;2023-04-05T11:21:44;102145.25;;;17.09;34.33
61554;BME280;47425;51.976;5.326;2023-04-05T11:24:12;102135.69;;;16.69;33.13
61554;BME280;47425;51.976;5.326;2023-04-05T11:26:55;102139.22;;;16.68;34.50
61554;BME280;47425;51.976;5.326;2023-04-05T11:32:11;102130.16;;;16.77;34.95
61554;BME280;47425;51.976;5.326;2023-04-05T11:34:41;102127.28;;;16.86;34.97
61554;BME280;47425;51.976;5.326;2023-04-05T11:37:09;102128.66;;;17.03;34.65
61554;BME280;47425;51.976;5.326;2023-04-05T11:39:35;102122.28;;;17.10;34.06
61554;BME280;47425;51.976;5.326;2023-04-05T11:42:03;102122.19;;;17.13;34.59
61554;BME280;47425;51.976;5.326;2023-04-05T11:44:42;102122.84;;;17.21;34.35
61554;BME280;47425;51.976;5.326;2023-04-05T11:47:11;102114.91;;;17.21;34.10
61554;BME280;47425;51.976;5.326;2023-04-05T11:49:37;102114.00;;;17.22;34.36
61554;BME280;47425;51.976;5.326;2023-04-05T11:52:16;102105.00;;;17.28;34.22
61554;BME280;47425;51.976;5.326;2023-04-05T11:54:44;102112.94;;;16.97;30.36
61554;BME280;47425;51.976;5.326;2023-04-05T11:57:11;102103.41;;;16.19;30.62
61554;BME280;47425;51.976;5.326;2023-04-05T11:59:38;102107.38;;;15.99;34.57
61554;BME280;47425;51.976;5.326;2023-04-05T12:02:05;102096.06;;;15.94;30.93
61554;BME280;47425;51.976;5.326;2023-04-05T12:04:33;102092.94;;;15.33;33.12
61554;BME280;47425;51.976;5.326;2023-04-05T12:07:17;102095.41;;;15.40;33.50
61554;BME280;47425;51.976;5.326;2023-04-05T12:12:40;102086.88;;;15.27;31.96
61554;BME280;47425;51.976;5.326;2023-04-05T12:15:09;102081.50;;;15.32;34.35
61554;BME280;47425;51.976;5.326;2023-04-05T12:17:43;102088.69;;;15.68;35.32
61554;BME280;47425;51.976;5.326;2023-04-05T12:20:12;102090.53;;;16.03;35.66
61554;BME280;47425;51.976;5.326;2023-04-05T12:22:41;102088.13;;;16.30;35.18
61554;BME280;47425;51.976;5.326;2023-04-05T12:25:08;102091.19;;;16.51;35.21
61554;BME280;47425;51.976;5.326;2023-04-05T12:27:36;102082.78;;;16.68;35.01
61554;BME280;47425;51.976;5.326;2023-04-05T12:30:03;102077.84;;;16.88;34.16
61554;BME280;47425;51.976;5.326;2023-04-05T12:32:34;102080.19;;;17.01;33.81
61554;BME280;47425;51.976;5.326;2023-04-05T12:35:04;102081.03;;;17.03;34.30
61554;BME280;47425;51.976;5.326;2023-04-05T12:37:32;102079.25;;;17.03;34.43
61554;BME280;47425;51.976;5.326;2023-04-05T12:40:02;102076.28;;;17.14;34.22
61554;BME280;47425;51.976;5.326;2023-04-05T12:42:30;102072.38;;;17.27;34.22
61554;BME280;47425;51.976;5.326;2023-04-05T12:45:01;102071.28;;;17.35;32.92
61554;BME280;47425;51.976;5.326;2023-04-05T12:47:27;102057.53;;;16.90;29.07
61554;BME280;47425;51.976;5.326;2023-04-05T12:49:55;102065.22;;;15.94;28.76
61554;BME280;47425;51.976;5.326;2023-04-05T12:52:21;102057.88;;;15.67;30.02
61554;BME280;47425;51.976;5.326;2023-04-05T12:54:52;102057.22;;;15.98;34.08
61554;BME280;47425;51.976;5.326;2023-04-05T12:57:28;102058.84;;;16.03;32.29
61554;BME280;47425;51.976;5.326;2023-04-05T12:59:57;102050.38;;;16.26;32.12
61554;BME280;47425;51.976;5.326;2023-04-05T13:02:24;102049.06;;;16.43;32.23
61554;BME280;47425;51.976;5.326;2023-04-05T13:04:51;102041.84;;;16.50;33.54
61554;BME280;47425;51.976;5.326;2023-04-05T13:07:31;102042.31;;;16.66;34.42
61554;BME280;47425;51.976;5.326;2023-04-05T13:09:59;102041.72;;;16.87;34.23
61554;BME280;47425;51.976;5.326;2023-04-05T13:12:25;102039.50;;;17.05;33.75
61554;BME280;47425;51.976;5.326;2023-04-05T13:14:53;102031.97;;;17.21;33.09
61554;BME280;47425;51.976;5.326;2023-04-05T13:17:21;102029.91;;;17.31;33.33
61554;BME280;47425;51.976;5.326;2023-04-05T13:19:47;102022.72;;;17.36;32.16
61554;BME280;47425;51.976;5.326;2023-04-05T13:22:13;102023.25;;;17.17;33.42
61554;BME280;47425;51.976;5.326;2023-04-05T13:24:40;102023.22;;;17.19;33.53